sensor_id;sensor_type;location;lat;lon;timestamp;temperature;humidity
6210;DHT22;3138;52.550;13.148;2022-11-18T00:00:46;2.10;1.00
6210;DHT22;3138;52.550;13.148;2022-11-18T00:03:13;2.10;1.00
6210;DHT22;3138;52.550;13.148;2022-11-18T00:05:40;2.10;1.00
6210;DHT22;3138;52.550;13.148;2022-11-18T00:08:07;2.10;1.00
6210;DHT22;3138;52.550;13.148;2022-11-18T00:10:36;2.10;1.00
6210;DHT22;3138;52.550;13.148;2022-11-18T00:13:04;2.10;1.00
6210;DHT22;3138;52.550;13.148;2022-11-18T00:15:48;2.10;1.00
6210;DHT22;3138;52.550;13.148;2022-11-18T00:18:15;2.10;1.00
6210;DHT22;3138;52.550;13.148;2022-11-18T00:20:42;2.00;1.00
6210;DHT22;3138;52.550;13.148;2022-11-18T00:23:09;2.00;1.00
6210;DHT22;3138;52.550;13.148;2022-11-18T00:25:36;2.10;1.00
6210;DHT22;3138;52.550;13.148;2022-11-18T00:28:04;2.00;1.00
6210;DHT22;3138;52.550;13.148;2022-11-18T00:30:31;2.00;1.00
6210;DHT22;3138;52.550;13.148;2022-11-18T00:32:57;2.00;1.00
6210;DHT22;3138;52.550;13.148;2022-11-18T00:35:24;2.00;1.00
6210;DHT22;3138;52.550;13.148;2022-11-18T00:37:51;1.90;1.00
6210;DHT22;3138;52.550;13.148;2022-11-18T00:40:18;1.90;1.00
6210;DHT22;3138;52.550;13.148;2022-11-18T00:42:45;1.90;1.00
6210;DHT22;3138;52.550;13.148;2022-11-18T00:45:20;1.90;1.00
6210;DHT22;3138;52.550;13.148;2022-11-18T00:47:47;1.80;1.00
6210;DHT22;3138;52.550;13.148;2022-11-18T00:50:14;1.80;1.00
6210;DHT22;3138;52.550;13.148;2022-11-18T00:52:41;1.80;1.00
6210;DHT22;3138;52.550;13.148;2022-11-18T00:55:08;1.80;1.00
6210;DHT22;3138;52.550;13.148;2022-11-18T00:57:35;1.80;1.00
6210;DHT22;3138;52.550;13.148;2022-11-18T01:00:03;1.80;1.00
6210;DHT22;3138;52.550;13.148;2022-11-18T01:02:31;1.80;1.00
6210;DHT22;3138;52.550;13.148;2022-11-18T01:04:58;1.80;99.90
6210;DHT22;3138;52.550;13.148;2022-11-18T01:07:25;1.70;99.90
6210;DHT22;3138;52.550;13.148;2022-11-18T01:09:52;1.70;99.90
6210;DHT22;3138;52.550;13.148;2022-11-18T01:12:19;1.70;99.90
6210;DHT22;3138;52.550;13.148;2022-11-18T01:15:03;1.70;99.90
6210;DHT22;3138;52.550;13.148;2022-11-18T01:17:32;1.70;99.90
6210;DHT22;3138;52.550;13.148;2022-11-18T01:19:59;1.70;99.90
6210;DHT22;3138;52.550;13.148;2022-11-18T01:22:25;1.70;99.90
6210;DHT22;3138;52.550;13.148;2022-11-18T01:24:52;1.60;99.90
6210;DHT22;3138;52.550;13.148;2022-11-18T01:27:19;1.70;99.90
6210;DHT22;3138;52.550;13.148;2022-11-18T01:29:46;1.60;99.90
6210;DHT22;3138;52.550;13.148;2022-11-18T01:32:14;1.60;99.90
6210;DHT22;3138;52.550;13.148;2022-11-18T01:34:42;1.70;99.90
6210;DHT22;3138;52.550;13.148;2022-11-18T01:37:09;1.60;92.20
6210;DHT22;3138;52.550;13.148;2022-11-18T01:39:36;1.60;97.20
6210;DHT22;3138;52.550;13.148;2022-11-18T01:42:03;1.60;99.90
6210;DHT22;3138;52.550;13.148;2022-11-18T01:44:55;1.60;72.50
6210;DHT22;3138;52.550;13.148;2022-11-18T01:47:23;1.50;31.30
6210;DHT22;3138;52.550;13.148;2022-11-18T01:49:52;1.50;6.40
6210;DHT22;3138;52.550;13.148;2022-11-18T01:52:19;1.40;1.00
6210;DHT22;3138;52.550;13.148;2022-11-18T01:54:49;1.40;1.00
6210;DHT22;3138;52.550;13.148;2022-11-18T01:57:19;1.40;1.00
6210;DHT22;3138;52.550;13.148;2022-11-18T01:59:49;1.40;1.00
6210;DHT22;3138;52.550;13.148;2022-11-18T02:02:16;1.30;1.00
6210;DHT22;3138;52.550;13.148;2022-11-18T02:04:46;1.30;1.00
6210;DHT22;3138;52.550;13.148;2022-11-18T02:07:15;1.30;1.00
6210;DHT22;3138;52.550;13.148;2022-11-18T02:09:43;1.30;1.00
6210;DHT22;3138;52.550;13.148;2022-11-18T02:12:10;1.30;1.00
6210;DHT22;3138;52.550;13.148;2022-11-18T02:14:43;1.30;1.00
6210;DHT22;3138;52.550;13.148;2022-11-18T02:17:18;1.20;1.00
6210;DHT22;3138;52.550;13.148;2022-11-18T02:22:54;1.20;1.00
6210;DHT22;3138;52.550;13.148;2022-11-18T02:25:32;1.20;1.00
6210;DHT22;3138;52.550;13.148;2022-11-18T02:28:19;1.20;2.70
6210;DHT22;3138;52.550;13.148;2022-11-18T02:30:55;1.20;1.00
6210;DHT22;3138;52.550;13.148;2022-11-18T02:33:27;1.20;21.30
6210;DHT22;3138;52.550;13.148;2022-11-18T02:35:59;1.20;2.80
6210;DHT22;3138;52.550;13.148;2022-11-18T02:38:28;1.20;14.50
6210;DHT22;3138;52.550;13.148;2022-11-18T02:41:00;1.10;21.10
6210;DHT22;3138;52.550;13.148;2022-11-18T02:43:31;1.20;96.70
6210;DHT22;3138;52.550;13.148;2022-11-18T02:46:05;1.10;92.50
6210;DHT22;3138;52.550;13.148;2022-11-18T02:48:36;1.10;99.90
6210;DHT22;3138;52.550;13.148;2022-11-18T02:51:06;1.20;99.90
6210;DHT22;3138;52.550;13.148;2022-11-18T02:53:35;1.10;99.90
6210;DHT22;3138;52.550;13.148;2022-11-18T02:56:04;1.10;78.00
6210;DHT22;3138;52.550;13.148;2022-11-18T02:58:32;1.00;99.90
6210;DHT22;3138;52.550;13.148;2022-11-18T03:01:01;1.00;99.90
6210;DHT22;3138;52.550;13.148;2022-11-18T03:03:30;1.00;99.90
6210;DHT22;3138;52.550;13.148;2022-11-18T03:06:04;1.00;99.90
6210;DHT22;3138;52.550;13.148;2022-11-18T03:08:37;1.00;99.90
6210;DHT22;3138;52.550;13.148;2022-11-18T03:11:10;0.90;99.90
6210;DHT22;3138;52.550;13.148;2022-11-18T03:13:46;0.90;99.90
6210;DHT22;3138;52.550;13.148;2022-11-18T03:16:22;0.90;99.90
6210;DHT22;3138;52.550;13.148;2022-11-18T03:18:53;0.90;99.90
6210;DHT22;3138;52.550;13.148;2022-11-18T03:21:28;0.90;99.90
6210;DHT22;3138;52.550;13.148;2022-11-18T03:24:02;0.90;99.90
6210;DHT22;3138;52.550;13.148;2022-11-18T03:26:34;0.90;99.90
6210;DHT22;3138;52.550;13.148;2022-11-18T03:29:05;0.90;99.90
6210;DHT22;3138;52.550;13.148;2022-11-18T03:31:37;0.80;77.50
6210;DHT22;3138;52.550;13.148;2022-11-18T03:34:09;0.80;99.90
6210;DHT22;3138;52.550;13.148;2022-11-18T03:36:40;0.90;99.90
6210;DHT22;3138;52.550;13.148;2022-11-18T03:39:10;0.80;99.90
6210;DHT22;3138;52.550;13.148;2022-11-18T03:41:41;0.80;99.90
6210;DHT22;3138;52.550;13.148;2022-11-18T03:44:13;0.70;99.90
6210;DHT22;3138;52.550;13.148;2022-11-18T03:46:46;0.80;99.90
6210;DHT22;3138;52.550;13.148;2022-11-18T03:49:18;0.80;99.90
6210;DHT22;3138;52.550;13.148;2022-11-18T03:51:50;0.70;99.90
6210;DHT22;3138;52.550;13.148;2022-11-18T03:54:19;0.80;99.90
6210;DHT22;3138;52.550;13.148;2022-11-18T03:56:52;0.70;99.90
6210;DHT22;3138;52.550;13.148;2022-11-18T03:59:24;0.70;99.90
6210;DHT22;3138;52.550;13.148;2022-11-18T04:01:56;0.70;99.90
6210;DHT22;3138;52.550;13.148;2022-11-18T04:04:27;0.60;99.90
6210;DHT22;3138;52.550;13.148;2022-11-18T04:06:59;0.60;99.90
6210;DHT22;3138;52.550;13.148;2022-11-18T04:09:31;0.60;99.90
6210;DHT22;3138;52.550;13.148;2022-11-18T04:12:03;0.50;99.90
6210;DHT22;3138;52.550;13.148;2022-11-18T04:14:33;0.50;99.90
6210;DHT22;3138;52.550;13.148;2022-11-18T04:17:05;0.60;99.90
6210;DHT22;3138;52.550;13.148;2022-11-18T04:19:33;0.50;99.90
6210;DHT22;3138;52.550;13.148;2022-11-18T04:22:00;0.50;99.90
6210;DHT22;3138;52.550;13.148;2022-11-18T04:24:27;0.50;99.90
6210;DHT22;3138;52.550;13.148;2022-11-18T04:26:54;0.50;99.90
6210;DHT22;3138;52.550;13.148;2022-11-18T04:29:20;0.60;99.90
6210;DHT22;3138;52.550;13.148;2022-11-18T04:31:48;0.60;99.90
6210;DHT22;3138;52.550;13.148;2022-11-18T04:34:16;0.60;99.90
6210;DHT22;3138;52.550;13.148;2022-11-18T04:36:43;0.50;99.90
6210;DHT22;3138;52.550;13.148;2022-11-18T04:39:09;0.50;99.90
6210;DHT22;3138;52.550;13.148;2022-11-18T04:41:36;0.50;99.90
6210;DHT22;3138;52.550;13.148;2022-11-18T04:44:22;0.60;99.90
6210;DHT22;3138;52.550;13.148;2022-11-18T04:46:49;0.50;1.00
6210;DHT22;3138;52.550;13.148;2022-11-18T04:49:17;0.50;1.00
6210;DHT22;3138;52.550;13.148;2022-11-18T04:51:45;0.50;1.00
6210;DHT22;3138;52.550;13.148;2022-11-18T04:54:12;0.50;1.00
6210;DHT22;3138;52.550;13.148;2022-11-18T04:56:40;0.50;1.00
6210;DHT22;3138;52.550;13.148;2022-11-18T04:59:08;0.50;1.00
6210;DHT22;3138;52.550;13.148;2022-11-18T05:01:34;0.40;1.00
6210;DHT22;3138;52.550;13.148;2022-11-18T05:04:03;0.40;1.00
6210;DHT22;3138;52.550;13.148;2022-11-18T05:06:33;0.40;1.00
6210;DHT22;3138;52.550;13.148;2022-11-18T05:09:00;0.40;1.00
6210;DHT22;3138;52.550;13.148;2022-11-18T05:11:27;0.40;1.00
6210;DHT22;3138;52.550;13.148;2022-11-18T05:14:14;0.50;1.00
6210;DHT22;3138;52.550;13.148;2022-11-18T05:16:40;0.40;1.00
6210;DHT22;3138;52.550;13.148;2022-11-18T05:19:08;0.40;1.00
6210;DHT22;3138;52.550;13.148;2022-11-18T05:21:36;0.30;1.00
6210;DHT22;3138;52.550;13.148;2022-11-18T05:24:04;0.30;1.00
6210;DHT22;3138;52.550;13.148;2022-11-18T05:26:31;0.30;1.00
6210;DHT22;3138;52.550;13.148;2022-11-18T05:28:58;0.20;1.00
6210;DHT22;3138;52.550;13.148;2022-11-18T05:31:24;0.20;1.00
6210;DHT22;3138;52.550;13.148;2022-11-18T05:33:51;0.20;1.00
6210;DHT22;3138;52.550;13.148;2022-11-18T05:36:19;0.20;1.00
6210;DHT22;3138;52.550;13.148;2022-11-18T05:38:49;0.20;1.00
6210;DHT22;3138;52.550;13.148;2022-11-18T05:41:16;0.10;1.00
6210;DHT22;3138;52.550;13.148;2022-11-18T05:43:57;0.20;1.00
6210;DHT22;3138;52.550;13.148;2022-11-18T05:46:25;0.10;1.00
6210;DHT22;3138;52.550;13.148;2022-11-18T05:48:52;0.10;1.00
6210;DHT22;3138;52.550;13.148;2022-11-18T05:51:19;0.10;1.00
6210;DHT22;3138;52.550;13.148;2022-11-18T05:53:48;0.10;1.00
6210;DHT22;3138;52.550;13.148;2022-11-18T05:56:19;0.10;1.00
6210;DHT22;3138;52.550;13.148;2022-11-18T05:58:46;0.20;1.00
6210;DHT22;3138;52.550;13.148;2022-11-18T06:01:15;0.20;99.90
6210;DHT22;3138;52.550;13.148;2022-11-18T06:03:43;0.20;99.90
6210;DHT22;3138;52.550;13.148;2022-11-18T06:06:12;0.10;99.90
6210;DHT22;3138;52.550;13.148;2022-11-18T06:08:42;0.10;99.90
6210;DHT22;3138;52.550;13.148;2022-11-18T06:11:16;0.20;62.30
6210;DHT22;3138;52.550;13.148;2022-11-18T06:13:46;0.10;1.00
6210;DHT22;3138;52.550;13.148;2022-11-18T06:16:15;0.10;1.00
6210;DHT22;3138;52.550;13.148;2022-11-18T06:18:42;0.10;1.00
6210;DHT22;3138;52.550;13.148;2022-11-18T06:21:09;0.10;1.00
6210;DHT22;3138;52.550;13.148;2022-11-18T06:23:38;0.10;1.00
6210;DHT22;3138;52.550;13.148;2022-11-18T06:26:06;0.00;1.00
6210;DHT22;3138;52.550;13.148;2022-11-18T06:28:35;0.10;99.90
6210;DHT22;3138;52.550;13.148;2022-11-18T06:31:02;0.00;99.90
6210;DHT22;3138;52.550;13.148;2022-11-18T06:33:29;0.00;99.90
6210;DHT22;3138;52.550;13.148;2022-11-18T06:35:56;0.10;99.90
6210;DHT22;3138;52.550;13.148;2022-11-18T06:38:23;0.10;49.90
6210;DHT22;3138;52.550;13.148;2022-11-18T06:40:50;0.00;1.00
6210;DHT22;3138;52.550;13.148;2022-11-18T06:43:17;0.10;1.00
6210;DHT22;3138;52.550;13.148;2022-11-18T06:46:05;0.00;1.00
6210;DHT22;3138;52.550;13.148;2022-11-18T06:48:50;0.10;1.00
6210;DHT22;3138;52.550;13.148;2022-11-18T06:51:17;0.10;99.90
6210;DHT22;3138;52.550;13.148;2022-11-18T06:53:45;0.10;99.90
6210;DHT22;3138;52.550;13.148;2022-11-18T06:56:13;0.10;99.90
6210;DHT22;3138;52.550;13.148;2022-11-18T06:58:41;0.10;99.90
6210;DHT22;3138;52.550;13.148;2022-11-18T07:01:10;0.00;11.50
6210;DHT22;3138;52.550;13.148;2022-11-18T07:03:38;0.00;1.00
6210;DHT22;3138;52.550;13.148;2022-11-18T07:06:05;0.10;1.00
6210;DHT22;3138;52.550;13.148;2022-11-18T07:08:33;0.00;1.00
6210;DHT22;3138;52.550;13.148;2022-11-18T07:11:00;0.00;1.00
6210;DHT22;3138;52.550;13.148;2022-11-18T07:13:27;0.00;1.00
6210;DHT22;3138;52.550;13.148;2022-11-18T07:15:54;0.00;1.00
6210;DHT22;3138;52.550;13.148;2022-11-18T07:18:22;0.00;1.00
6210;DHT22;3138;52.550;13.148;2022-11-18T07:20:49;0.00;99.90
6210;DHT22;3138;52.550;13.148;2022-11-18T07:23:15;0.10;1.00
6210;DHT22;3138;52.550;13.148;2022-11-18T07:25:42;0.10;1.00
6210;DHT22;3138;52.550;13.148;2022-11-18T07:28:09;0.00;99.90
6210;DHT22;3138;52.550;13.148;2022-11-18T07:30:36;0.10;99.90
6210;DHT22;3138;52.550;13.148;2022-11-18T07:33:03;0.10;99.90
6210;DHT22;3138;52.550;13.148;2022-11-18T07:35:32;0.00;91.10
6210;DHT22;3138;52.550;13.148;2022-11-18T07:37:58;0.00;44.20
6210;DHT22;3138;52.550;13.148;2022-11-18T07:40:25;0.00;1.00
6210;DHT22;3138;52.550;13.148;2022-11-18T07:42:52;0.10;1.00
6210;DHT22;3138;52.550;13.148;2022-11-18T07:45:19;0.00;1.00
6210;DHT22;3138;52.550;13.148;2022-11-18T07:47:46;0.00;24.70
6210;DHT22;3138;52.550;13.148;2022-11-18T07:50:13;0.00;99.90
6210;DHT22;3138;52.550;13.148;2022-11-18T07:52:41;0.00;99.90
6210;DHT22;3138;52.550;13.148;2022-11-18T07:55:08;0.00;49.20
6210;DHT22;3138;52.550;13.148;2022-11-18T07:57:35;0.10;99.90
6210;DHT22;3138;52.550;13.148;2022-11-18T08:00:03;0.10;1.00
6210;DHT22;3138;52.550;13.148;2022-11-18T08:02:30;0.00;1.00
6210;DHT22;3138;52.550;13.148;2022-11-18T08:04:57;0.10;1.00
6210;DHT22;3138;52.550;13.148;2022-11-18T08:07:23;0.00;1.00
6210;DHT22;3138;52.550;13.148;2022-11-18T08:09:52;0.10;1.00
6210;DHT22;3138;52.550;13.148;2022-11-18T08:12:18;0.00;1.00
6210;DHT22;3138;52.550;13.148;2022-11-18T08:14:45;0.00;99.90
6210;DHT22;3138;52.550;13.148;2022-11-18T08:17:12;0.00;99.90
6210;DHT22;3138;52.550;13.148;2022-11-18T08:19:39;0.00;99.90
6210;DHT22;3138;52.550;13.148;2022-11-18T08:22:05;0.00;99.90
6210;DHT22;3138;52.550;13.148;2022-11-18T08:24:32;-0.10;99.90
6210;DHT22;3138;52.550;13.148;2022-11-18T08:27:00;0.00;99.90
6210;DHT22;3138;52.550;13.148;2022-11-18T08:29:27;0.00;99.90
6210;DHT22;3138;52.550;13.148;2022-11-18T08:31:54;0.10;99.90
6210;DHT22;3138;52.550;13.148;2022-11-18T08:34:21;0.00;3.70
6210;DHT22;3138;52.550;13.148;2022-11-18T08:36:48;0.10;1.00
6210;DHT22;3138;52.550;13.148;2022-11-18T08:39:14;0.00;1.00
6210;DHT22;3138;52.550;13.148;2022-11-18T08:41:42;0.10;1.00
6210;DHT22;3138;52.550;13.148;2022-11-18T08:44:14;0.10;1.00
6210;DHT22;3138;52.550;13.148;2022-11-18T08:46:41;0.20;1.00
6210;DHT22;3138;52.550;13.148;2022-11-18T08:49:10;0.20;1.00
6210;DHT22;3138;52.550;13.148;2022-11-18T08:51:36;0.10;1.00
6210;DHT22;3138;52.550;13.148;2022-11-18T08:54:03;0.10;1.00
6210;DHT22;3138;52.550;13.148;2022-11-18T08:56:30;0.00;1.00
6210;DHT22;3138;52.550;13.148;2022-11-18T08:58:57;0.00;1.00
6210;DHT22;3138;52.550;13.148;2022-11-18T09:01:25;0.10;1.00
6210;DHT22;3138;52.550;13.148;2022-11-18T09:03:52;0.10;1.00
6210;DHT22;3138;52.550;13.148;2022-11-18T09:06:21;0.20;1.00
6210;DHT22;3138;52.550;13.148;2022-11-18T09:08:49;0.00;1.00
6210;DHT22;3138;52.550;13.148;2022-11-18T09:11:18;0.00;1.00
6210;DHT22;3138;52.550;13.148;2022-11-18T09:13:45;0.00;1.00
6210;DHT22;3138;52.550;13.148;2022-11-18T09:16:12;0.00;1.00
6210;DHT22;3138;52.550;13.148;2022-11-18T09:18:40;-0.10;1.00
6210;DHT22;3138;52.550;13.148;2022-11-18T09:21:08;0.10;1.00
6210;DHT22;3138;52.550;13.148;2022-11-18T09:23:36;-0.20;99.90
6210;DHT22;3138;52.550;13.148;2022-11-18T09:26:05;-0.10;1.00
6210;DHT22;3138;52.550;13.148;2022-11-18T09:28:33;-0.10;1.00
6210;DHT22;3138;52.550;13.148;2022-11-18T09:31:02;-0.10;1.00
6210;DHT22;3138;52.550;13.148;2022-11-18T09:33:30;0.00;1.00
6210;DHT22;3138;52.550;13.148;2022-11-18T09:35:58;0.00;1.00
6210;DHT22;3138;52.550;13.148;2022-11-18T09:38:27;-0.10;1.00
6210;DHT22;3138;52.550;13.148;2022-11-18T09:41:00;-0.10;1.00
6210;DHT22;3138;52.550;13.148;2022-11-18T09:43:39;0.00;1.00
6210;DHT22;3138;52.550;13.148;2022-11-18T09:46:21;0.00;1.00
6210;DHT22;3138;52.550;13.148;2022-11-18T09:48:51;0.00;1.00
6210;DHT22;3138;52.550;13.148;2022-11-18T09:51:38;0.10;1.00
6210;DHT22;3138;52.550;13.148;2022-11-18T09:54:10;0.20;99.90
6210;DHT22;3138;52.550;13.148;2022-11-18T09:56:38;0.20;99.90
6210;DHT22;3138;52.550;13.148;2022-11-18T09:59:05;0.00;99.90
6210;DHT22;3138;52.550;13.148;2022-11-18T10:01:34;0.00;99.90
6210;DHT22;3138;52.550;13.148;2022-11-18T10:04:02;0.10;1.00
6210;DHT22;3138;52.550;13.148;2022-11-18T10:06:31;0.10;1.00
6210;DHT22;3138;52.550;13.148;2022-11-18T10:09:09;0.10;1.00
6210;DHT22;3138;52.550;13.148;2022-11-18T10:11:42;0.20;1.00
6210;DHT22;3138;52.550;13.148;2022-11-18T10:14:21;0.40;1.00
6210;DHT22;3138;52.550;13.148;2022-11-18T10:16:56;0.20;1.00
6210;DHT22;3138;52.550;13.148;2022-11-18T10:19:29;0.20;1.00
6210;DHT22;3138;52.550;13.148;2022-11-18T10:24:50;0.00;99.90
6210;DHT22;3138;52.550;13.148;2022-11-18T10:27:18;0.00;99.90
6210;DHT22;3138;52.550;13.148;2022-11-18T10:29:50;0.00;99.90
6210;DHT22;3138;52.550;13.148;2022-11-18T10:32:18;-0.20;99.90
6210;DHT22;3138;52.550;13.148;2022-11-18T10:34:47;-0.10;99.90
6210;DHT22;3138;52.550;13.148;2022-11-18T10:37:22;0.00;99.90
6210;DHT22;3138;52.550;13.148;2022-11-18T10:39:52;0.10;99.90
6210;DHT22;3138;52.550;13.148;2022-11-18T10:42:25;-0.10;99.90
6210;DHT22;3138;52.550;13.148;2022-11-18T10:44:53;0.00;99.90
6210;DHT22;3138;52.550;13.148;2022-11-18T10:47:26;0.10;99.90
6210;DHT22;3138;52.550;13.148;2022-11-18T10:49:54;0.20;61.10
6210;DHT22;3138;52.550;13.148;2022-11-18T10:52:21;0.40;99.90
6210;DHT22;3138;52.550;13.148;2022-11-18T10:55:19;0.40;1.00
6210;DHT22;3138;52.550;13.148;2022-11-18T10:57:47;0.30;1.00
6210;DHT22;3138;52.550;13.148;2022-11-18T11:00:36;0.40;1.00
6210;DHT22;3138;52.550;13.148;2022-11-18T11:03:22;0.50;1.00
6210;DHT22;3138;52.550;13.148;2022-11-18T11:06:17;0.50;1.00
6210;DHT22;3138;52.550;13.148;2022-11-18T11:08:49;0.50;1.00
6210;DHT22;3138;52.550;13.148;2022-11-18T11:11:24;0.50;1.00
6210;DHT22;3138;52.550;13.148;2022-11-18T11:13:57;0.40;1.00
6210;DHT22;3138;52.550;13.148;2022-11-18T11:16:28;0.30;1.00
6210;DHT22;3138;52.550;13.148;2022-11-18T11:18:59;0.40;1.00
6210;DHT22;3138;52.550;13.148;2022-11-18T11:21:26;0.50;1.00
6210;DHT22;3138;52.550;13.148;2022-11-18T11:23:53;0.50;1.00
6210;DHT22;3138;52.550;13.148;2022-11-18T11:26:29;0.30;99.90
6210;DHT22;3138;52.550;13.148;2022-11-18T11:29:03;0.50;1.00
6210;DHT22;3138;52.550;13.148;2022-11-18T11:31:38;0.40;99.90
6210;DHT22;3138;52.550;13.148;2022-11-18T11:34:17;0.60;1.00
6210;DHT22;3138;52.550;13.148;2022-11-18T11:36:50;0.50;1.00
6210;DHT22;3138;52.550;13.148;2022-11-18T11:39:49;0.60;1.00
6210;DHT22;3138;52.550;13.148;2022-11-18T11:42:31;0.60;1.00
6210;DHT22;3138;52.550;13.148;2022-11-18T11:45:13;0.60;1.00
6210;DHT22;3138;52.550;13.148;2022-11-18T11:47:50;0.70;1.00
6210;DHT22;3138;52.550;13.148;2022-11-18T11:50:26;0.60;1.00
6210;DHT22;3138;52.550;13.148;2022-11-18T11:53:08;0.70;1.00
6210;DHT22;3138;52.550;13.148;2022-11-18T11:55:45;0.80;1.00
6210;DHT22;3138;52.550;13.148;2022-11-18T11:58:27;0.70;99.90
6210;DHT22;3138;52.550;13.148;2022-11-18T12:01:02;0.60;99.90
6210;DHT22;3138;52.550;13.148;2022-11-18T12:03:43;0.60;99.90
6210;DHT22;3138;52.550;13.148;2022-11-18T12:06:11;0.50;99.90
6210;DHT22;3138;52.550;13.148;2022-11-18T12:08:49;0.70;99.90
6210;DHT22;3138;52.550;13.148;2022-11-18T12:11:26;0.80;99.90
6210;DHT22;3138;52.550;13.148;2022-11-18T12:14:03;0.70;99.90
6210;DHT22;3138;52.550;13.148;2022-11-18T12:16:39;0.80;99.90
6210;DHT22;3138;52.550;13.148;2022-11-18T12:19:11;0.90;99.90
6210;DHT22;3138;52.550;13.148;2022-11-18T12:21:58;0.80;99.90
6210;DHT22;3138;52.550;13.148;2022-11-18T12:24:33;0.80;99.90
6210;DHT22;3138;52.550;13.148;2022-11-18T12:27:09;0.90;99.90
6210;DHT22;3138;52.550;13.148;2022-11-18T12:29:55;0.90;99.90
6210;DHT22;3138;52.550;13.148;2022-11-18T12:32:27;0.80;99.90
6210;DHT22;3138;52.550;13.148;2022-11-18T12:34:58;0.60;75.70
6210;DHT22;3138;52.550;13.148;2022-11-18T12:37:42;0.50;91.30
6210;DHT22;3138;52.550;13.148;2022-11-18T12:40:10;0.60;21.60
6210;DHT22;3138;52.550;13.148;2022-11-18T12:42:55;0.60;1.00
6210;DHT22;3138;52.550;13.148;2022-11-18T12:45:59;0.80;1.00
6210;DHT22;3138;52.550;13.148;2022-11-18T12:48:36;0.70;1.00
6210;DHT22;3138;52.550;13.148;2022-11-18T12:54:30;0.80;1.00
6210;DHT22;3138;52.550;13.148;2022-11-18T12:57:00;0.80;1.00
6210;DHT22;3138;52.550;13.148;2022-11-18T12:59:29;0.80;1.00
6210;DHT22;3138;52.550;13.148;2022-11-18T13:02:16;0.80;1.00
6210;DHT22;3138;52.550;13.148;2022-11-18T13:04:43;0.70;1.00
6210;DHT22;3138;52.550;13.148;2022-11-18T13:07:11;0.50;1.00
6210;DHT22;3138;52.550;13.148;2022-11-18T13:10:00;0.40;1.00
6210;DHT22;3138;52.550;13.148;2022-11-18T13:12:28;0.40;1.00
6210;DHT22;3138;52.550;13.148;2022-11-18T13:14:57;0.30;1.00
6210;DHT22;3138;52.550;13.148;2022-11-18T13:17:46;0.40;1.00
6210;DHT22;3138;52.550;13.148;2022-11-18T13:20:22;0.50;1.00
6210;DHT22;3138;52.550;13.148;2022-11-18T13:22:52;0.50;1.00
6210;DHT22;3138;52.550;13.148;2022-11-18T13:25:38;0.40;1.00
6210;DHT22;3138;52.550;13.148;2022-11-18T13:28:11;0.50;99.90
6210;DHT22;3138;52.550;13.148;2022-11-18T13:30:48;0.60;99.90
6210;DHT22;3138;52.550;13.148;2022-11-18T13:33:18;0.50;99.90
6210;DHT22;3138;52.550;13.148;2022-11-18T13:35:45;0.50;99.90
6210;DHT22;3138;52.550;13.148;2022-11-18T13:38:19;0.50;99.90
6210;DHT22;3138;52.550;13.148;2022-11-18T13:40:48;0.50;99.90
6210;DHT22;3138;52.550;13.148;2022-11-18T13:43:29;0.40;99.90
6210;DHT22;3138;52.550;13.148;2022-11-18T13:45:58;0.50;99.90
6210;DHT22;3138;52.550;13.148;2022-11-18T13:48:27;0.40;99.90
6210;DHT22;3138;52.550;13.148;2022-11-18T13:50:55;0.40;99.90
6210;DHT22;3138;52.550;13.148;2022-11-18T13:53:28;0.40;99.90
6210;DHT22;3138;52.550;13.148;2022-11-18T13:55:58;0.30;99.90
6210;DHT22;3138;52.550;13.148;2022-11-18T13:58:36;0.30;99.90
6210;DHT22;3138;52.550;13.148;2022-11-18T14:01:11;0.20;99.90
6210;DHT22;3138;52.550;13.148;2022-11-18T14:03:47;0.20;99.90
6210;DHT22;3138;52.550;13.148;2022-11-18T14:06:24;0.20;99.90
6210;DHT22;3138;52.550;13.148;2022-11-18T14:08:51;0.20;99.90
6210;DHT22;3138;52.550;13.148;2022-11-18T14:11:36;0.20;99.90
6210;DHT22;3138;52.550;13.148;2022-11-18T14:14:03;0.10;99.90
6210;DHT22;3138;52.550;13.148;2022-11-18T14:16:33;0.10;99.90
6210;DHT22;3138;52.550;13.148;2022-11-18T14:19:02;0.00;99.90
6210;DHT22;3138;52.550;13.148;2022-11-18T14:21:30;0.00;99.90
6210;DHT22;3138;52.550;13.148;2022-11-18T14:23:58;0.00;1.00
6210;DHT22;3138;52.550;13.148;2022-11-18T14:26:28;0.00;99.90
6210;DHT22;3138;52.550;13.148;2022-11-18T14:28:57;0.00;99.90
6210;DHT22;3138;52.550;13.148;2022-11-18T14:31:26;-0.10;99.90
6210;DHT22;3138;52.550;13.148;2022-11-18T14:34:10;-0.10;99.90
6210;DHT22;3138;52.550;13.148;2022-11-18T14:36:41;-0.10;1.00
6210;DHT22;3138;52.550;13.148;2022-11-18T14:39:12;-0.20;1.00
6210;DHT22;3138;52.550;13.148;2022-11-18T14:41:39;-0.30;1.00
6210;DHT22;3138;52.550;13.148;2022-11-18T14:44:15;-0.20;1.00
6210;DHT22;3138;52.550;13.148;2022-11-18T14:46:44;-0.20;1.00
6210;DHT22;3138;52.550;13.148;2022-11-18T14:49:15;-0.30;1.00
6210;DHT22;3138;52.550;13.148;2022-11-18T14:51:42;-0.30;1.00
6210;DHT22;3138;52.550;13.148;2022-11-18T14:54:12;-0.30;1.00
6210;DHT22;3138;52.550;13.148;2022-11-18T14:56:40;-0.30;1.00
6210;DHT22;3138;52.550;13.148;2022-11-18T14:59:10;-0.30;1.00
6210;DHT22;3138;52.550;13.148;2022-11-18T15:01:38;-0.30;99.90
6210;DHT22;3138;52.550;13.148;2022-11-18T15:04:05;-0.30;99.90
6210;DHT22;3138;52.550;13.148;2022-11-18T15:06:33;-0.30;99.90
6210;DHT22;3138;52.550;13.148;2022-11-18T15:09:00;-0.40;99.90
6210;DHT22;3138;52.550;13.148;2022-11-18T15:11:27;-0.40;99.90
6210;DHT22;3138;52.550;13.148;2022-11-18T15:13:54;-0.40;99.90
6210;DHT22;3138;52.550;13.148;2022-11-18T15:16:22;-0.40;99.90
6210;DHT22;3138;52.550;13.148;2022-11-18T15:18:51;-0.40;99.90
6210;DHT22;3138;52.550;13.148;2022-11-18T15:21:19;-0.50;99.90
6210;DHT22;3138;52.550;13.148;2022-11-18T15:23:47;-0.50;99.90
6210;DHT22;3138;52.550;13.148;2022-11-18T15:26:19;-0.50;99.90
6210;DHT22;3138;52.550;13.148;2022-11-18T15:28:47;-0.60;99.90
6210;DHT22;3138;52.550;13.148;2022-11-18T15:31:15;-0.60;99.90
6210;DHT22;3138;52.550;13.148;2022-11-18T15:33:42;-0.60;99.90
6210;DHT22;3138;52.550;13.148;2022-11-18T15:36:11;-0.60;99.90
6210;DHT22;3138;52.550;13.148;2022-11-18T15:38:38;-0.60;99.90
6210;DHT22;3138;52.550;13.148;2022-11-18T15:41:09;-0.70;1.00
6210;DHT22;3138;52.550;13.148;2022-11-18T15:43:38;-0.70;1.00
6210;DHT22;3138;52.550;13.148;2022-11-18T15:46:05;-0.80;1.00
6210;DHT22;3138;52.550;13.148;2022-11-18T15:48:32;-0.80;1.00
6210;DHT22;3138;52.550;13.148;2022-11-18T15:50:59;-0.90;1.00
6210;DHT22;3138;52.550;13.148;2022-11-18T15:53:25;-0.80;1.00
6210;DHT22;3138;52.550;13.148;2022-11-18T15:56:14;-0.80;1.00
6210;DHT22;3138;52.550;13.148;2022-11-18T15:58:41;-0.90;1.00
6210;DHT22;3138;52.550;13.148;2022-11-18T16:01:08;-0.90;1.00
6210;DHT22;3138;52.550;13.148;2022-11-18T16:03:35;-0.90;1.00
6210;DHT22;3138;52.550;13.148;2022-11-18T16:06:01;-1.00;1.00
6210;DHT22;3138;52.550;13.148;2022-11-18T16:08:28;-1.10;1.00
6210;DHT22;3138;52.550;13.148;2022-11-18T16:10:56;-1.10;1.00
6210;DHT22;3138;52.550;13.148;2022-11-18T16:13:43;-1.20;1.00
6210;DHT22;3138;52.550;13.148;2022-11-18T16:16:17;-1.20;1.00
6210;DHT22;3138;52.550;13.148;2022-11-18T16:18:44;-1.20;1.00
6210;DHT22;3138;52.550;13.148;2022-11-18T16:21:11;-1.30;1.00
6210;DHT22;3138;52.550;13.148;2022-11-18T16:23:37;-1.30;1.00
6210;DHT22;3138;52.550;13.148;2022-11-18T16:26:04;-1.40;1.00
6210;DHT22;3138;52.550;13.148;2022-11-18T16:28:31;-1.40;1.00
6210;DHT22;3138;52.550;13.148;2022-11-18T16:30:59;-1.50;1.00
6210;DHT22;3138;52.550;13.148;2022-11-18T16:33:44;-1.70;1.00
6210;DHT22;3138;52.550;13.148;2022-11-18T16:36:11;-1.80;8.30
6210;DHT22;3138;52.550;13.148;2022-11-18T16:38:37;-1.90;99.90